Accueil
METAR-TAF:

METAR-TAF

Aéroports :

Danville, Virginie, États-Unis

latitude: 36-34-22N, longitude: 079-20-10W, altitude: 174 m

Observation

Le bulletin a été fait il y a 26 minutes, à 10:53 UTC
Vent 4 kt de nord-est
Température 6°C
Humidité 61%
Pression 1015 hPa
Visibilité: 16.1 km
Ciel clair

METAR: KDAN 041053Z AUTO 05004KT 10SM CLR 06/M01 A2996 RMK AO2 SLP138 T00561011

Heure: 07:19 (11:19 UTC)

Prévision

Le bulletin a été fait il y a 5 heures et 49 minutes, à 05:30 UTC
Prévision valable du 04 à 06 UTC au 05 à 06 UTC
Vent 3 kt de nord/nord-ouest
Visibilité: 10 km
Ciel clair
A partir de 04 à 1300 UTC
Vent 5 kt de nord
Visibilité: 10 km
Ciel clair
A partir de 04 à 1900 UTC
Vent 7 kt de nord-est
Visibilité: 10 km
Ciel clair
A partir de 04 à 2200 UTC
Vent 4 kt de est
Visibilité: 10 km
Ciel clair

TAF: KDAN 040530Z 0406/0506 34003KT P6SM SKC FM041300 01005KT P6SM SKC FM041900 04007KT P6SM SKC FM042200 08004KT P6SM SKC

Observations et prévisions météorologiques de plus de 4000 aéroports (messages METAR et TAF).

Les stations disponibles sont représentées par des disques jaunes et rouges sur la carte.

Passer la souris dessus pour voir le nom de la station.

Cliquer dessus pour voir les observations et prévisions météorologiques.

Pour changer de carte: cliquez sur les boutons verts avec une croix noire pour zoomer, sur le bouton vert avec un tiret pour effectuer un zoom arrière, ou sur les flèches vertes pour les cartes adjacentes.


METAR-TAF: